sensor_id;sensor_type;location;lat;lon;timestamp;pressure;altitude;pressure_sealevel;temperature;humidity
9822;BME280;4950;46.042;14.472;2024-02-21T00:02:21;98904.16;;;8.87;85.36
9822;BME280;4950;46.042;14.472;2024-02-21T00:04:48;98901.31;;;8.91;85.20
9822;BME280;4950;46.042;14.472;2024-02-21T00:07:15;98901.31;;;8.81;85.32
9822;BME280;4950;46.042;14.472;2024-02-21T00:09:42;98901.56;;;8.58;85.31
9822;BME280;4950;46.042;14.472;2024-02-21T00:12:08;98902.50;;;8.57;85.81
9822;BME280;4950;46.042;14.472;2024-02-21T00:14:35;98905.63;;;8.51;86.88
9822;BME280;4950;46.042;14.472;2024-02-21T00:17:02;98902.47;;;8.38;86.32
9822;BME280;4950;46.042;14.472;2024-02-21T00:19:30;98903.03;;;8.41;86.79
9822;BME280;4950;46.042;14.472;2024-02-21T00:21:56;98900.31;;;8.43;86.46
9822;BME280;4950;46.042;14.472;2024-02-21T00:24:23;98908.09;;;8.43;85.54
9822;BME280;4950;46.042;14.472;2024-02-21T00:26:50;98906.69;;;8.39;86.18
9822;BME280;4950;46.042;14.472;2024-02-21T00:29:16;98909.28;;;8.39;86.59
9822;BME280;4950;46.042;14.472;2024-02-21T00:31:43;98900.31;;;8.43;85.09
9822;BME280;4950;46.042;14.472;2024-02-21T00:34:10;98908.09;;;8.43;85.42
9822;BME280;4950;46.042;14.472;2024-02-21T00:36:39;98896.50;;;8.47;84.68
9822;BME280;4950;46.042;14.472;2024-02-21T00:39:06;98902.75;;;8.35;84.84
9822;BME280;4950;46.042;14.472;2024-02-21T00:41:32;98899.72;;;8.20;85.80
9822;BME280;4950;46.042;14.472;2024-02-21T00:43:59;98906.22;;;8.14;85.69
9822;BME280;4950;46.042;14.472;2024-02-21T00:46:26;98902.72;;;8.15;85.49
9822;BME280;4950;46.042;14.472;2024-02-21T00:48:52;98904.19;;;8.08;85.62
9822;BME280;4950;46.042;14.472;2024-02-21T00:51:19;98902.53;;;7.97;86.46
9822;BME280;4950;46.042;14.472;2024-02-21T00:53:47;98902.09;;;7.92;86.38
9822;BME280;4950;46.042;14.472;2024-02-21T00:56:14;98903.91;;;8.01;85.69
9822;BME280;4950;46.042;14.472;2024-02-21T00:58:40;98905.25;;;7.96;85.16
9822;BME280;4950;46.042;14.472;2024-02-21T01:01:07;98905.13;;;7.97;84.92
9822;BME280;4950;46.042;14.472;2024-02-21T01:03:34;98903.34;;;7.98;84.55
9822;BME280;4950;46.042;14.472;2024-02-21T01:06:00;98897.91;;;7.91;84.54
9822;BME280;4950;46.042;14.472;2024-02-21T01:08:27;98900.97;;;7.85;84.48
9822;BME280;4950;46.042;14.472;2024-02-21T01:10:55;98902.06;;;7.82;84.66
9822;BME280;4950;46.042;14.472;2024-02-21T01:13:22;98897.72;;;7.83;84.35
9822;BME280;4950;46.042;14.472;2024-02-21T01:15:48;98896.38;;;7.88;84.13
9822;BME280;4950;46.042;14.472;2024-02-21T01:18:15;98900.97;;;7.85;83.79
9822;BME280;4950;46.042;14.472;2024-02-21T01:20:42;98899.63;;;7.81;83.90
9822;BME280;4950;46.042;14.472;2024-02-21T01:23:08;98898.91;;;7.69;84.07
9822;BME280;4950;46.042;14.472;2024-02-21T01:25:35;98899.53;;;7.61;83.93
9822;BME280;4950;46.042;14.472;2024-02-21T01:28:03;98892.09;;;7.68;83.27
9822;BME280;4950;46.042;14.472;2024-02-21T01:30:30;98886.38;;;7.64;83.36
9822;BME280;4950;46.042;14.472;2024-02-21T01:32:57;98888.34;;;7.51;84.98
9822;BME280;4950;46.042;14.472;2024-02-21T01:35:23;98897.31;;;7.47;85.22
9822;BME280;4950;46.042;14.472;2024-02-21T01:37:50;98899.50;;;7.51;85.22
9822;BME280;4950;46.042;14.472;2024-02-21T01:40:17;98893.56;;;7.61;84.82
9822;BME280;4950;46.042;14.472;2024-02-21T01:42:44;98890.00;;;7.52;84.92
9822;BME280;4950;46.042;14.472;2024-02-21T01:45:14;98886.97;;;7.47;84.75
9822;BME280;4950;46.042;14.472;2024-02-21T01:47:41;98889.81;;;7.44;84.74
9822;BME280;4950;46.042;14.472;2024-02-21T01:50:09;98882.75;;;7.46;83.49
9822;BME280;4950;46.042;14.472;2024-02-21T01:52:36;98876.34;;;7.40;83.75
9822;BME280;4950;46.042;14.472;2024-02-21T01:55:03;98886.69;;;7.40;84.36
9822;BME280;4950;46.042;14.472;2024-02-21T01:57:30;98882.00;;;7.34;83.92
9822;BME280;4950;46.042;14.472;2024-02-21T01:59:57;98888.66;;;7.27;84.17
9822;BME280;4950;46.042;14.472;2024-02-21T02:02:26;98882.66;;;7.26;83.83
9822;BME280;4950;46.042;14.472;2024-02-21T02:04:52;98882.88;;;7.14;84.83
9822;BME280;4950;46.042;14.472;2024-02-21T02:07:19;98887.53;;;7.20;84.45
9822;BME280;4950;46.042;14.472;2024-02-21T02:09:46;98889.28;;;7.19;84.29
9822;BME280;4950;46.042;14.472;2024-02-21T02:12:12;98893.06;;;7.15;84.20
9822;BME280;4950;46.042;14.472;2024-02-21T02:14:39;98894.69;;;7.16;83.72
9822;BME280;4950;46.042;14.472;2024-02-21T02:17:06;98891.69;;;7.11;83.70
9822;BME280;4950;46.042;14.472;2024-02-21T02:19:35;98889.59;;;7.05;83.78
9822;BME280;4950;46.042;14.472;2024-02-21T02:22:09;98893.53;;;6.99;83.60
9822;BME280;4950;46.042;14.472;2024-02-21T02:24:37;98892.44;;;7.02;84.60
9822;BME280;4950;46.042;14.472;2024-02-21T02:27:04;98897.84;;;6.99;84.42
9822;BME280;4950;46.042;14.472;2024-02-21T02:29:32;98903.91;;;6.88;84.90
9822;BME280;4950;46.042;14.472;2024-02-21T02:31:58;98904.25;;;6.83;84.94
9822;BME280;4950;46.042;14.472;2024-02-21T02:34:25;98903.22;;;6.86;84.66
9822;BME280;4950;46.042;14.472;2024-02-21T02:36:52;98900.88;;;6.83;84.63
9822;BME280;4950;46.042;14.472;2024-02-21T02:39:20;98904.41;;;6.82;84.10
9822;BME280;4950;46.042;14.472;2024-02-21T02:41:48;98904.53;;;6.80;84.46
9822;BME280;4950;46.042;14.472;2024-02-21T02:44:14;98901.78;;;6.61;85.26
9822;BME280;4950;46.042;14.472;2024-02-21T02:46:41;98901.59;;;6.52;85.82
9822;BME280;4950;46.042;14.472;2024-02-21T02:49:08;98898.88;;;6.54;84.93
9822;BME280;4950;46.042;14.472;2024-02-21T02:51:35;98903.56;;;6.60;84.89
9822;BME280;4950;46.042;14.472;2024-02-21T02:54:02;98904.03;;;6.54;84.54
9822;BME280;4950;46.042;14.472;2024-02-21T02:56:29;98893.31;;;6.38;84.56
9822;BME280;4950;46.042;14.472;2024-02-21T02:58:57;98891.31;;;6.41;85.19
9822;BME280;4950;46.042;14.472;2024-02-21T03:01:24;98885.59;;;6.26;85.94
9822;BME280;4950;46.042;14.472;2024-02-21T03:03:50;98888.06;;;6.28;85.65
9822;BME280;4950;46.042;14.472;2024-02-21T03:06:17;98891.25;;;6.20;86.15
9822;BME280;4950;46.042;14.472;2024-02-21T03:08:44;98894.97;;;6.27;85.35
9822;BME280;4950;46.042;14.472;2024-02-21T03:11:11;98889.72;;;6.29;85.33
9822;BME280;4950;46.042;14.472;2024-02-21T03:13:38;98900.72;;;6.31;85.54
9822;BME280;4950;46.042;14.472;2024-02-21T03:16:06;98900.13;;;6.27;84.89
9822;BME280;4950;46.042;14.472;2024-02-21T03:18:33;98905.78;;;6.21;85.95
9822;BME280;4950;46.042;14.472;2024-02-21T03:20:59;98905.53;;;6.24;85.44
9822;BME280;4950;46.042;14.472;2024-02-21T03:23:26;98908.59;;;6.18;85.80
9822;BME280;4950;46.042;14.472;2024-02-21T03:25:53;98915.25;;;6.21;85.57
9822;BME280;4950;46.042;14.472;2024-02-21T03:28:19;98907.88;;;6.27;84.42
9822;BME280;4950;46.042;14.472;2024-02-21T03:30:46;98910.03;;;6.00;85.55
9822;BME280;4950;46.042;14.472;2024-02-21T03:33:14;98912.13;;;5.94;85.71
9822;BME280;4950;46.042;14.472;2024-02-21T03:35:41;98911.19;;;5.96;85.51
9822;BME280;4950;46.042;14.472;2024-02-21T03:38:08;98914.00;;;6.04;85.26
9822;BME280;4950;46.042;14.472;2024-02-21T03:40:34;98912.13;;;5.94;85.37
9822;BME280;4950;46.042;14.472;2024-02-21T03:43:01;98905.34;;;5.82;85.28
9822;BME280;4950;46.042;14.472;2024-02-21T03:45:28;98909.56;;;5.61;85.54
9822;BME280;4950;46.042;14.472;2024-02-21T03:47:54;98915.75;;;5.69;86.06
9822;BME280;4950;46.042;14.472;2024-02-21T03:50:23;98909.91;;;5.67;85.55
9822;BME280;4950;46.042;14.472;2024-02-21T03:52:51;98919.03;;;5.71;85.26
9822;BME280;4950;46.042;14.472;2024-02-21T03:55:17;98913.66;;;5.74;85.04
9822;BME280;4950;46.042;14.472;2024-02-21T03:57:44;98917.16;;;5.62;85.65
9822;BME280;4950;46.042;14.472;2024-02-21T04:00:11;98919.03;;;5.60;85.44
9822;BME280;4950;46.042;14.472;2024-02-21T04:02:38;98928.16;;;5.64;85.38
9822;BME280;4950;46.042;14.472;2024-02-21T04:05:05;98923.38;;;5.71;84.54
9822;BME280;4950;46.042;14.472;2024-02-21T04:07:37;98916.34;;;5.73;84.52
9822;BME280;4950;46.042;14.472;2024-02-21T04:10:04;98921.47;;;5.62;84.26
9822;BME280;4950;46.042;14.472;2024-02-21T04:12:31;98930.63;;;5.66;84.47
9822;BME280;4950;46.042;14.472;2024-02-21T04:14:58;98928.75;;;5.57;84.57
9822;BME280;4950;46.042;14.472;2024-02-21T04:17:25;98926.53;;;5.63;84.36
9822;BME280;4950;46.042;14.472;2024-02-21T04:20:01;98924.06;;;5.62;84.48
9822;BME280;4950;46.042;14.472;2024-02-21T04:22:30;98918.47;;;5.57;84.57
9822;BME280;4950;46.042;14.472;2024-02-21T04:24:59;98915.63;;;5.48;85.54
9822;BME280;4950;46.042;14.472;2024-02-21T04:27:25;98917.16;;;5.51;85.22
9822;BME280;4950;46.042;14.472;2024-02-21T04:29:53;98918.34;;;5.47;84.85
9822;BME280;4950;46.042;14.472;2024-02-21T04:32:19;98916.69;;;5.46;84.56
9822;BME280;4950;46.042;14.472;2024-02-21T04:34:46;98914.00;;;5.47;84.25
9822;BME280;4950;46.042;14.472;2024-02-21T04:37:13;98905.69;;;5.44;84.23
9822;BME280;4950;46.042;14.472;2024-02-21T04:39:40;98906.97;;;5.38;85.09
9822;BME280;4950;46.042;14.472;2024-02-21T04:42:08;98911.41;;;5.36;85.42
9822;BME280;4950;46.042;14.472;2024-02-21T04:44:34;98907.19;;;5.46;84.84
9822;BME280;4950;46.042;14.472;2024-02-21T04:47:01;98912.44;;;5.45;84.65
9822;BME280;4950;46.042;14.472;2024-02-21T04:49:28;98905.56;;;5.45;84.89
9822;BME280;4950;46.042;14.472;2024-02-21T04:51:55;98900.88;;;5.39;84.84
9822;BME280;4950;46.042;14.472;2024-02-21T04:54:22;98899.13;;;5.40;84.85
9822;BME280;4950;46.042;14.472;2024-02-21T04:56:48;98900.88;;;5.39;84.66
9822;BME280;4950;46.042;14.472;2024-02-21T04:59:17;98903.69;;;5.36;84.50
9822;BME280;4950;46.042;14.472;2024-02-21T05:01:43;98910.34;;;5.27;84.98
9822;BME280;4950;46.042;14.472;2024-02-21T05:04:10;98913.06;;;5.37;84.67
9822;BME280;4950;46.042;14.472;2024-02-21T05:06:37;98913.28;;;5.45;83.98
9822;BME280;4950;46.042;14.472;2024-02-21T05:09:05;98916.56;;;5.36;84.04
9822;BME280;4950;46.042;14.472;2024-02-21T05:11:32;98916.06;;;5.31;84.17
9822;BME280;4950;46.042;14.472;2024-02-21T05:13:58;98923.41;;;5.13;84.75
9822;BME280;4950;46.042;14.472;2024-02-21T05:16:26;98928.19;;;5.06;84.61
9822;BME280;4950;46.042;14.472;2024-02-21T05:18:53;98922.34;;;5.04;83.51
9822;BME280;4950;46.042;14.472;2024-02-21T05:21:21;98931.13;;;5.13;83.02
9822;BME280;4950;46.042;14.472;2024-02-21T05:23:49;98927.03;;;5.10;83.54
9822;BME280;4950;46.042;14.472;2024-02-21T05:26:20;98935.47;;;5.12;83.46
9822;BME280;4950;46.042;14.472;2024-02-21T05:28:47;98938.94;;;5.11;82.99
9822;BME280;4950;46.042;14.472;2024-02-21T05:31:13;98939.97;;;4.98;82.51
9822;BME280;4950;46.042;14.472;2024-02-21T05:33:42;98931.94;;;4.78;84.64
9822;BME280;4950;46.042;14.472;2024-02-21T05:36:09;98931.28;;;4.87;84.44
9822;BME280;4950;46.042;14.472;2024-02-21T05:38:36;98928.16;;;4.95;84.33
9822;BME280;4950;46.042;14.472;2024-02-21T05:41:03;98918.72;;;5.07;84.04
9822;BME280;4950;46.042;14.472;2024-02-21T05:43:30;98922.09;;;5.07;83.71
9822;BME280;4950;46.042;14.472;2024-02-21T05:45:56;98928.06;;;4.97;84.85
9822;BME280;4950;46.042;14.472;2024-02-21T05:48:23;98938.78;;;4.90;85.60
9822;BME280;4950;46.042;14.472;2024-02-21T05:50:51;98941.38;;;4.90;85.54
9822;BME280;4950;46.042;14.472;2024-02-21T05:53:18;98947.66;;;4.86;85.86
9822;BME280;4950;46.042;14.472;2024-02-21T05:55:45;98948.78;;;4.82;86.37
9822;BME280;4950;46.042;14.472;2024-02-21T05:58:11;98949.47;;;4.73;86.28
9822;BME280;4950;46.042;14.472;2024-02-21T06:00:39;98946.16;;;4.60;87.11
9822;BME280;4950;46.042;14.472;2024-02-21T06:03:05;98946.84;;;4.62;86.59
9822;BME280;4950;46.042;14.472;2024-02-21T06:05:36;98946.84;;;4.62;86.15
9822;BME280;4950;46.042;14.472;2024-02-21T06:08:06;98942.63;;;4.61;86.37
9822;BME280;4950;46.042;14.472;2024-02-21T06:10:33;98941.47;;;4.41;85.30
9822;BME280;4950;46.042;14.472;2024-02-21T06:13:00;98936.06;;;4.32;86.31
9822;BME280;4950;46.042;14.472;2024-02-21T06:15:26;98940.41;;;4.32;86.42
9822;BME280;4950;46.042;14.472;2024-02-21T06:17:53;98933.28;;;4.35;86.79
9822;BME280;4950;46.042;14.472;2024-02-21T06:20:20;98937.38;;;4.38;87.06
9822;BME280;4950;46.042;14.472;2024-02-21T06:22:46;98936.25;;;4.42;86.80
9822;BME280;4950;46.042;14.472;2024-02-21T06:25:14;98935.63;;;4.39;88.08
9822;BME280;4950;46.042;14.472;2024-02-21T06:27:41;98943.84;;;4.44;87.82
9822;BME280;4950;46.042;14.472;2024-02-21T06:30:09;98953.34;;;4.54;87.45
9822;BME280;4950;46.042;14.472;2024-02-21T06:32:36;98951.34;;;4.71;87.24
9822;BME280;4950;46.042;14.472;2024-02-21T06:35:04;98951.34;;;4.71;87.25
9822;BME280;4950;46.042;14.472;2024-02-21T06:37:30;98947.00;;;4.71;87.22
9822;BME280;4950;46.042;14.472;2024-02-21T06:39:57;98960.38;;;4.77;87.11
9822;BME280;4950;46.042;14.472;2024-02-21T06:42:25;98955.53;;;4.72;87.38
9822;BME280;4950;46.042;14.472;2024-02-21T06:44:52;98961.66;;;4.82;87.44
9822;BME280;4950;46.042;14.472;2024-02-21T06:47:19;98967.97;;;4.78;87.06
9822;BME280;4950;46.042;14.472;2024-02-21T06:49:48;98965.91;;;4.59;88.75
9822;BME280;4950;46.042;14.472;2024-02-21T06:52:17;98967.22;;;4.65;89.02
9822;BME280;4950;46.042;14.472;2024-02-21T06:54:45;98974.09;;;4.64;88.94
9822;BME280;4950;46.042;14.472;2024-02-21T06:57:12;98971.59;;;4.75;88.92
9822;BME280;4950;46.042;14.472;2024-02-21T06:59:40;98972.22;;;4.66;89.61
9822;BME280;4950;46.042;14.472;2024-02-21T07:02:07;98970.66;;;4.77;90.40
9822;BME280;4950;46.042;14.472;2024-02-21T07:04:34;98975.63;;;4.91;91.98
9822;BME280;4950;46.042;14.472;2024-02-21T07:07:00;98973.06;;;4.91;92.20
9822;BME280;4950;46.042;14.472;2024-02-21T07:09:27;98976.34;;;4.93;92.30
9822;BME280;4950;46.042;14.472;2024-02-21T07:11:57;98975.63;;;4.91;90.99
9822;BME280;4950;46.042;14.472;2024-02-21T07:14:24;98983.69;;;4.86;90.42
9822;BME280;4950;46.042;14.472;2024-02-21T07:16:52;98982.69;;;4.52;90.67
9822;BME280;4950;46.042;14.472;2024-02-21T07:19:18;98981.19;;;4.37;90.43
9822;BME280;4950;46.042;14.472;2024-02-21T07:21:45;98979.41;;;4.50;91.18
9822;BME280;4950;46.042;14.472;2024-02-21T07:24:12;98962.31;;;4.49;90.57
9822;BME280;4950;46.042;14.472;2024-02-21T07:26:41;98966.91;;;4.32;90.51
9822;BME280;4950;46.042;14.472;2024-02-21T07:29:08;98969.19;;;4.24;91.53
9822;BME280;4950;46.042;14.472;2024-02-21T07:31:39;98963.88;;;4.51;91.18
9822;BME280;4950;46.042;14.472;2024-02-21T07:34:07;98973.19;;;4.65;90.67
9822;BME280;4950;46.042;14.472;2024-02-21T07:36:34;98968.34;;;4.37;91.12
9822;BME280;4950;46.042;14.472;2024-02-21T07:39:02;98969.81;;;4.52;91.77
9822;BME280;4950;46.042;14.472;2024-02-21T07:41:30;98974.47;;;4.47;92.49
9822;BME280;4950;46.042;14.472;2024-02-21T07:43:57;98971.59;;;4.51;93.49
9822;BME280;4950;46.042;14.472;2024-02-21T07:46:24;98967.22;;;4.65;93.04
9822;BME280;4950;46.042;14.472;2024-02-21T07:48:50;98970.59;;;4.65;92.86
9822;BME280;4950;46.042;14.472;2024-02-21T07:51:19;98961.03;;;4.67;92.23
9822;BME280;4950;46.042;14.472;2024-02-21T07:53:45;98956.78;;;4.66;92.34
9822;BME280;4950;46.042;14.472;2024-02-21T07:56:13;98961.22;;;4.64;91.46
9822;BME280;4950;46.042;14.472;2024-02-21T07:58:40;98963.97;;;4.74;92.18
9822;BME280;4950;46.042;14.472;2024-02-21T08:01:07;98963.06;;;4.75;91.93
9822;BME280;4950;46.042;14.472;2024-02-21T08:03:34;98962.97;;;4.88;92.01
9822;BME280;4950;46.042;14.472;2024-02-21T08:06:00;98964.69;;;4.76;92.58
9822;BME280;4950;46.042;14.472;2024-02-21T08:08:29;98956.84;;;4.78;92.81
9822;BME280;4950;46.042;14.472;2024-02-21T08:10:56;98967.25;;;4.76;92.06
9822;BME280;4950;46.042;14.472;2024-02-21T08:13:22;98969.38;;;4.82;92.53
9822;BME280;4950;46.042;14.472;2024-02-21T08:15:49;98959.84;;;4.95;92.59
9822;BME280;4950;46.042;14.472;2024-02-21T08:18:15;98967.47;;;4.97;92.79
9822;BME280;4950;46.042;14.472;2024-02-21T08:20:42;98966.25;;;4.90;92.60
9822;BME280;4950;46.042;14.472;2024-02-21T08:23:09;98963.25;;;4.72;92.93
9822;BME280;4950;46.042;14.472;2024-02-21T08:25:37;98961.50;;;4.72;93.02
9822;BME280;4950;46.042;14.472;2024-02-21T08:28:05;98960.69;;;4.72;94.62
9822;BME280;4950;46.042;14.472;2024-02-21T08:30:32;98963.53;;;4.80;95.10
9822;BME280;4950;46.042;14.472;2024-02-21T08:32:59;98958.72;;;4.75;95.10
9822;BME280;4950;46.042;14.472;2024-02-21T08:35:26;98964.91;;;4.73;95.98
9822;BME280;4950;46.042;14.472;2024-02-21T08:37:53;98958.34;;;4.69;95.76
9822;BME280;4950;46.042;14.472;2024-02-21T08:40:19;98957.22;;;4.84;96.07
9822;BME280;4950;46.042;14.472;2024-02-21T08:42:48;98952.13;;;4.95;96.11
9822;BME280;4950;46.042;14.472;2024-02-21T08:45:15;98952.97;;;5.07;95.77
9822;BME280;4950;46.042;14.472;2024-02-21T08:47:42;98955.00;;;5.15;95.37
9822;BME280;4950;46.042;14.472;2024-02-21T08:50:10;98947.44;;;5.36;95.59
9822;BME280;4950;46.042;14.472;2024-02-21T08:52:36;98947.50;;;5.59;95.26
9822;BME280;4950;46.042;14.472;2024-02-21T08:55:04;98940.56;;;5.93;94.52
9822;BME280;4950;46.042;14.472;2024-02-21T08:57:30;98937.41;;;6.23;92.71
9822;BME280;4950;46.042;14.472;2024-02-21T09:00:04;98932.78;;;6.49;92.67
9822;BME280;4950;46.042;14.472;2024-02-21T09:02:35;98931.41;;;6.78;90.31
9822;BME280;4950;46.042;14.472;2024-02-21T09:05:03;98931.56;;;6.97;89.08
9822;BME280;4950;46.042;14.472;2024-02-21T09:07:31;98923.66;;;7.20;86.99
9822;BME280;4950;46.042;14.472;2024-02-21T09:09:58;98921.97;;;7.30;86.11
9822;BME280;4950;46.042;14.472;2024-02-21T09:12:24;98912.25;;;7.43;83.92
9822;BME280;4950;46.042;14.472;2024-02-21T09:14:51;98912.03;;;7.56;83.65
9822;BME280;4950;46.042;14.472;2024-02-21T09:17:19;98910.59;;;7.73;82.83
9822;BME280;4950;46.042;14.472;2024-02-21T09:19:46;98901.00;;;7.95;81.28
9822;BME280;4950;46.042;14.472;2024-02-21T09:22:13;98900.53;;;8.10;80.89
9822;BME280;4950;46.042;14.472;2024-02-21T09:24:40;98890.63;;;8.35;79.63
9822;BME280;4950;46.042;14.472;2024-02-21T09:27:07;98884.53;;;8.46;77.55
9822;BME280;4950;46.042;14.472;2024-02-21T09:29:34;98885.09;;;8.59;77.78
9822;BME280;4950;46.042;14.472;2024-02-21T09:32:01;98892.31;;;8.65;76.95
9822;BME280;4950;46.042;14.472;2024-02-21T09:34:30;98895.28;;;8.90;74.87
9822;BME280;4950;46.042;14.472;2024-02-21T09:36:57;98887.63;;;9.08;73.83
9822;BME280;4950;46.042;14.472;2024-02-21T09:39:24;98885.53;;;9.21;75.44
9822;BME280;4950;46.042;14.472;2024-02-21T09:41:53;98880.13;;;9.52;75.84
9822;BME280;4950;46.042;14.472;2024-02-21T09:44:24;98877.19;;;9.75;74.75
9822;BME280;4950;46.042;14.472;2024-02-21T09:47:02;98872.84;;;9.93;73.83
9822;BME280;4950;46.042;14.472;2024-02-21T09:49:32;98859.91;;;10.11;72.70
9822;BME280;4950;46.042;14.472;2024-02-21T09:52:00;98856.94;;;10.34;72.08
9822;BME280;4950;46.042;14.472;2024-02-21T09:54:29;98857.38;;;10.47;70.51
9822;BME280;4950;46.042;14.472;2024-02-21T09:56:56;98863.06;;;10.69;70.19
9822;BME280;4950;46.042;14.472;2024-02-21T09:59:23;98857.78;;;10.78;69.20
9822;BME280;4950;46.042;14.472;2024-02-21T10:01:50;98856.50;;;11.09;69.27
9822;BME280;4950;46.042;14.472;2024-02-21T10:04:17;98864.09;;;11.28;66.80
9822;BME280;4950;46.042;14.472;2024-02-21T10:06:46;98855.13;;;11.49;65.85
9822;BME280;4950;46.042;14.472;2024-02-21T10:09:20;98857.75;;;11.57;64.54
9822;BME280;4950;46.042;14.472;2024-02-21T10:11:48;98859.44;;;11.66;64.91
9822;BME280;4950;46.042;14.472;2024-02-21T10:14:15;98861.13;;;11.83;63.47
9822;BME280;4950;46.042;14.472;2024-02-21T10:16:42;98850.47;;;12.03;63.11
9822;BME280;4950;46.042;14.472;2024-02-21T10:19:16;98844.66;;;12.25;62.57
9822;BME280;4950;46.042;14.472;2024-02-21T10:21:43;98841.06;;;12.51;61.09
9822;BME280;4950;46.042;14.472;2024-02-21T10:24:12;98840.44;;;12.74;60.59
9822;BME280;4950;46.042;14.472;2024-02-21T10:26:38;98832.91;;;13.03;60.04
9822;BME280;4950;46.042;14.472;2024-02-21T10:29:05;98832.22;;;13.10;59.08
9822;BME280;4950;46.042;14.472;2024-02-21T10:31:32;98837.75;;;13.31;59.32
9822;BME280;4950;46.042;14.472;2024-02-21T10:34:00;98832.97;;;13.43;56.20
9822;BME280;4950;46.042;14.472;2024-02-21T10:36:28;98826.03;;;13.67;55.48
9822;BME280;4950;46.042;14.472;2024-02-21T10:38:55;98826.19;;;13.73;55.82
9822;BME280;4950;46.042;14.472;2024-02-21T10:41:24;98820.69;;;13.91;55.57
9822;BME280;4950;46.042;14.472;2024-02-21T10:43:53;98810.59;;;13.88;54.37
9822;BME280;4950;46.042;14.472;2024-02-21T10:46:21;98802.94;;;14.10;54.90
9822;BME280;4950;46.042;14.472;2024-02-21T10:49:01;98794.00;;;14.27;54.37
9822;BME280;4950;46.042;14.472;2024-02-21T10:51:33;98793.91;;;14.44;53.68
9822;BME280;4950;46.042;14.472;2024-02-21T10:54:10;98789.13;;;14.47;53.13
9822;BME280;4950;46.042;14.472;2024-02-21T10:56:41;98787.75;;;14.36;52.18
9822;BME280;4950;46.042;14.472;2024-02-21T10:59:08;98776.88;;;14.48;51.85
9822;BME280;4950;46.042;14.472;2024-02-21T11:01:35;98770.72;;;14.64;51.58
9822;BME280;4950;46.042;14.472;2024-02-21T11:04:04;98759.56;;;14.85;50.63
9822;BME280;4950;46.042;14.472;2024-02-21T11:06:31;98751.91;;;14.98;50.45
9822;BME280;4950;46.042;14.472;2024-02-21T11:09:00;98746.22;;;15.09;48.93
9822;BME280;4950;46.042;14.472;2024-02-21T11:11:28;98743.59;;;15.09;48.81
9822;BME280;4950;46.042;14.472;2024-02-21T11:14:05;98733.56;;;15.28;48.22
9822;BME280;4950;46.042;14.472;2024-02-21T11:16:36;98710.28;;;15.33;48.32
9822;BME280;4950;46.042;14.472;2024-02-21T11:19:05;98700.78;;;15.47;47.93
9822;BME280;4950;46.042;14.472;2024-02-21T11:21:35;98697.66;;;15.73;46.88
9822;BME280;4950;46.042;14.472;2024-02-21T11:24:02;98684.25;;;15.83;46.53
9822;BME280;4950;46.042;14.472;2024-02-21T11:26:30;98670.69;;;16.01;46.38
9822;BME280;4950;46.042;14.472;2024-02-21T11:28:57;98669.00;;;16.14;45.60
9822;BME280;4950;46.042;14.472;2024-02-21T11:31:26;98653.59;;;16.33;44.42
9822;BME280;4950;46.042;14.472;2024-02-21T11:33:54;98657.03;;;16.05;44.53
9822;BME280;4950;46.042;14.472;2024-02-21T11:36:24;98641.91;;;16.29;45.32
9822;BME280;4950;46.042;14.472;2024-02-21T11:38:51;98633.56;;;16.53;45.02
9822;BME280;4950;46.042;14.472;2024-02-21T11:41:18;98630.31;;;16.86;44.84
9822;BME280;4950;46.042;14.472;2024-02-21T11:43:46;98626.94;;;17.06;42.95
9822;BME280;4950;46.042;14.472;2024-02-21T11:46:14;98616.28;;;17.14;42.81
9822;BME280;4950;46.042;14.472;2024-02-21T11:48:42;98605.97;;;16.99;43.15
9822;BME280;4950;46.042;14.472;2024-02-21T11:51:09;98601.91;;;16.96;43.63
9822;BME280;4950;46.042;14.472;2024-02-21T11:53:36;98596.66;;;16.96;43.52
9822;BME280;4950;46.042;14.472;2024-02-21T11:56:03;98596.94;;;17.35;43.86
9822;BME280;4950;46.042;14.472;2024-02-21T11:58:31;98586.66;;;17.60;42.52
9822;BME280;4950;46.042;14.472;2024-02-21T12:00:57;98579.78;;;17.92;42.14
9822;BME280;4950;46.042;14.472;2024-02-21T12:03:24;98570.09;;;18.00;40.97
9822;BME280;4950;46.042;14.472;2024-02-21T12:05:53;98560.38;;;18.13;41.12
9822;BME280;4950;46.042;14.472;2024-02-21T12:08:21;98564.13;;;18.38;40.29
9822;BME280;4950;46.042;14.472;2024-02-21T12:10:48;98555.00;;;18.53;39.52
9822;BME280;4950;46.042;14.472;2024-02-21T12:13:16;98547.66;;;18.62;40.00
9822;BME280;4950;46.042;14.472;2024-02-21T12:15:47;98541.31;;;18.83;39.39
9822;BME280;4950;46.042;14.472;2024-02-21T12:18:14;98545.53;;;19.23;38.59
9822;BME280;4950;46.042;14.472;2024-02-21T12:20:40;98544.84;;;19.34;38.37
9822;BME280;4950;46.042;14.472;2024-02-21T12:23:10;98535.63;;;19.18;38.20
9822;BME280;4950;46.042;14.472;2024-02-21T12:25:38;98525.03;;;19.31;37.96
9822;BME280;4950;46.042;14.472;2024-02-21T12:28:05;98520.81;;;19.24;38.21
9822;BME280;4950;46.042;14.472;2024-02-21T12:30:32;98518.19;;;18.92;38.32
9822;BME280;4950;46.042;14.472;2024-02-21T12:33:00;98514.50;;;19.00;38.83
9822;BME280;4950;46.042;14.472;2024-02-21T12:35:27;98515.31;;;19.00;38.19
9822;BME280;4950;46.042;14.472;2024-02-21T12:37:56;98508.91;;;18.89;38.36
9822;BME280;4950;46.042;14.472;2024-02-21T12:40:24;98499.28;;;19.02;39.00
9822;BME280;4950;46.042;14.472;2024-02-21T12:42:58;98497.84;;;19.06;38.60
9822;BME280;4950;46.042;14.472;2024-02-21T12:45:24;98504.69;;;19.39;38.19
9822;BME280;4950;46.042;14.472;2024-02-21T12:47:50;98492.59;;;19.56;37.53
9822;BME280;4950;46.042;14.472;2024-02-21T12:50:17;98490.75;;;19.82;37.48
9822;BME280;4950;46.042;14.472;2024-02-21T12:52:45;98493.59;;;19.99;37.18
9822;BME280;4950;46.042;14.472;2024-02-21T12:55:11;98483.72;;;20.12;36.97
9822;BME280;4950;46.042;14.472;2024-02-21T12:57:40;98481.72;;;20.26;37.14
9822;BME280;4950;46.042;14.472;2024-02-21T13:00:07;98469.44;;;20.50;37.06
9822;BME280;4950;46.042;14.472;2024-02-21T13:02:36;98476.09;;;20.71;35.63
9822;BME280;4950;46.042;14.472;2024-02-21T13:05:04;98475.28;;;20.71;35.60
9822;BME280;4950;46.042;14.472;2024-02-21T13:07:31;98468.84;;;20.67;35.64
9822;BME280;4950;46.042;14.472;2024-02-21T13:09:58;98463.94;;;20.70;35.79
9822;BME280;4950;46.042;14.472;2024-02-21T13:12:25;98462.88;;;20.71;35.51
9822;BME280;4950;46.042;14.472;2024-02-21T13:14:54;98449.66;;;20.60;35.58
9822;BME280;4950;46.042;14.472;2024-02-21T13:17:21;98446.31;;;20.52;35.31
9822;BME280;4950;46.042;14.472;2024-02-21T13:19:48;98438.53;;;20.27;36.58
9822;BME280;4950;46.042;14.472;2024-02-21T13:22:15;98438.22;;;20.17;36.68